sensor_id;sensor_type;location;lat;lon;timestamp;pressure;altitude;pressure_sealevel;temperature;humidity
69035;BME280;56091;55.756;37.412;2023-03-14T00:04:17;98641.75;;;-3.42;67.19
69035;BME280;56091;55.756;37.412;2023-03-14T00:09:37;98624.38;;;-3.36;67.09
69035;BME280;56091;55.756;37.412;2023-03-14T00:14:56;98629.03;;;-3.23;67.55
69035;BME280;56091;55.756;37.412;2023-03-14T00:20:16;98602.94;;;-3.18;67.75
69035;BME280;56091;55.756;37.412;2023-03-14T00:25:35;98600.06;;;-3.02;67.70
69035;BME280;56091;55.756;37.412;2023-03-14T00:30:55;98577.00;;;-3.00;67.36
69035;BME280;56091;55.756;37.412;2023-03-14T00:36:16;98574.78;;;-2.96;67.38
69035;BME280;56091;55.756;37.412;2023-03-14T00:41:37;98581.13;;;-2.90;68.34
69035;BME280;56091;55.756;37.412;2023-03-14T00:46:56;98569.13;;;-2.93;68.86
69035;BME280;56091;55.756;37.412;2023-03-14T00:52:16;98580.56;;;-2.71;69.87
69035;BME280;56091;55.756;37.412;2023-03-14T00:57:35;98563.59;;;-2.62;70.75
69035;BME280;56091;55.756;37.412;2023-03-14T01:02:36;98565.22;;;-2.61;71.41
69035;BME280;56091;55.756;37.412;2023-03-14T01:07:37;98533.81;;;-2.56;72.72
69035;BME280;56091;55.756;37.412;2023-03-14T01:12:39;98550.28;;;-2.53;73.47
69035;BME280;56091;55.756;37.412;2023-03-14T01:17:40;98540.16;;;-2.50;74.55
69035;BME280;56091;55.756;37.412;2023-03-14T01:23:00;98513.31;;;-2.53;75.44
69035;BME280;56091;55.756;37.412;2023-03-14T01:28:19;98483.72;;;-2.64;76.36
69035;BME280;56091;55.756;37.412;2023-03-14T01:33:40;98476.56;;;-2.70;77.78
69035;BME280;56091;55.756;37.412;2023-03-14T01:38:42;98487.75;;;-2.68;78.79
69035;BME280;56091;55.756;37.412;2023-03-14T01:43:45;98471.56;;;-2.65;79.60
69035;BME280;56091;55.756;37.412;2023-03-14T01:54:08;98445.41;;;-2.60;80.49
69035;BME280;56091;55.756;37.412;2023-03-14T01:59:10;98433.44;;;-2.56;80.75
69035;BME280;56091;55.756;37.412;2023-03-14T02:04:13;98425.13;;;-2.52;81.16
69035;BME280;56091;55.756;37.412;2023-03-14T02:09:17;98415.00;;;-2.49;81.26
69035;BME280;56091;55.756;37.412;2023-03-14T02:14:33;98415.44;;;-2.45;82.08
69035;BME280;56091;55.756;37.412;2023-03-14T02:25:39;98392.44;;;-2.51;83.90
69035;BME280;56091;55.756;37.412;2023-03-14T02:30:41;98371.56;;;-2.46;84.40
69035;BME280;56091;55.756;37.412;2023-03-14T02:36:02;98357.06;;;-2.50;85.45
69035;BME280;56091;55.756;37.412;2023-03-14T02:41:05;98333.31;;;-2.50;85.84
69035;BME280;56091;55.756;37.412;2023-03-14T02:46:14;98346.41;;;-2.36;85.98
69035;BME280;56091;55.756;37.412;2023-03-14T02:51:17;98329.13;;;-2.38;85.61
69035;BME280;56091;55.756;37.412;2023-03-14T02:56:21;98332.81;;;-2.32;85.92
69035;BME280;56091;55.756;37.412;2023-03-14T03:01:22;98335.97;;;-2.16;85.83
69035;BME280;56091;55.756;37.412;2023-03-14T03:06:22;98354.47;;;-2.09;86.20
69035;BME280;56091;55.756;37.412;2023-03-14T03:11:23;98319.97;;;-2.01;87.04
69035;BME280;56091;55.756;37.412;2023-03-14T03:16:24;98315.31;;;-1.92;86.96
69035;BME280;56091;55.756;37.412;2023-03-14T03:21:25;98315.94;;;-1.90;86.67
69035;BME280;56091;55.756;37.412;2023-03-14T03:26:26;98290.75;;;-1.79;86.88
69035;BME280;56091;55.756;37.412;2023-03-14T03:31:27;98285.91;;;-1.69;86.59
69035;BME280;56091;55.756;37.412;2023-03-14T03:36:29;98281.00;;;-1.65;86.63
69035;BME280;56091;55.756;37.412;2023-03-14T03:41:33;98264.75;;;-1.62;86.64
69035;BME280;56091;55.756;37.412;2023-03-14T03:46:35;98266.16;;;-1.60;86.66
69035;BME280;56091;55.756;37.412;2023-03-14T03:51:35;98242.34;;;-1.73;86.92
69035;BME280;56091;55.756;37.412;2023-03-14T03:56:36;98255.63;;;-1.53;87.45
69035;BME280;56091;55.756;37.412;2023-03-14T04:01:40;98250.31;;;-1.53;87.69
69035;BME280;56091;55.756;37.412;2023-03-14T04:06:44;98239.16;;;-1.42;88.01
69035;BME280;56091;55.756;37.412;2023-03-14T04:11:46;98185.00;;;-1.66;88.14
69035;BME280;56091;55.756;37.412;2023-03-14T04:17:09;98241.78;;;-1.15;87.85
69035;BME280;56091;55.756;37.412;2023-03-14T04:22:16;98223.88;;;-1.13;87.64
69035;BME280;56091;55.756;37.412;2023-03-14T04:27:23;98231.38;;;-1.03;87.46
69035;BME280;56091;55.756;37.412;2023-03-14T04:32:24;98216.72;;;-0.92;87.43
69035;BME280;56091;55.756;37.412;2023-03-14T04:37:27;98208.56;;;-0.98;87.63
69035;BME280;56091;55.756;37.412;2023-03-14T04:42:29;98176.19;;;-0.93;87.26
69035;BME280;56091;55.756;37.412;2023-03-14T04:47:30;98211.97;;;-0.64;87.45
69035;BME280;56091;55.756;37.412;2023-03-14T04:52:34;98180.38;;;-0.65;87.58
69035;BME280;56091;55.756;37.412;2023-03-14T04:57:38;98184.63;;;-0.51;87.65
69035;BME280;56091;55.756;37.412;2023-03-14T05:02:43;98173.13;;;-0.38;87.90
69035;BME280;56091;55.756;37.412;2023-03-14T05:08:08;98166.16;;;-0.26;87.74
69035;BME280;56091;55.756;37.412;2023-03-14T05:13:29;98155.81;;;-0.02;86.69
69035;BME280;56091;55.756;37.412;2023-03-14T05:18:50;98145.19;;;0.05;86.02
69035;BME280;56091;55.756;37.412;2023-03-14T05:24:26;98153.94;;;0.05;85.96
69035;BME280;56091;55.756;37.412;2023-03-14T05:29:36;98175.16;;;0.05;85.61
69035;BME280;56091;55.756;37.412;2023-03-14T05:34:56;98165.50;;;0.17;85.57
69035;BME280;56091;55.756;37.412;2023-03-14T05:40:18;98163.66;;;0.43;84.40
69035;BME280;56091;55.756;37.412;2023-03-14T05:45:32;98173.06;;;0.46;83.27
69035;BME280;56091;55.756;37.412;2023-03-14T05:50:57;98167.97;;;0.44;82.88
69035;BME280;56091;55.756;37.412;2023-03-14T05:56:28;98179.75;;;0.73;82.66
69035;BME280;56091;55.756;37.412;2023-03-14T06:01:37;98128.16;;;0.44;81.64
69035;BME280;56091;55.756;37.412;2023-03-14T06:06:48;98188.84;;;0.84;81.03
69035;BME280;56091;55.756;37.412;2023-03-14T06:11:55;98172.72;;;1.04;80.49
69035;BME280;56091;55.756;37.412;2023-03-14T06:16:57;98166.66;;;1.15;79.57
69035;BME280;56091;55.756;37.412;2023-03-14T06:22:02;98156.28;;;1.14;78.80
69035;BME280;56091;55.756;37.412;2023-03-14T06:27:03;98154.66;;;1.13;78.98
69035;BME280;56091;55.756;37.412;2023-03-14T06:32:04;98153.91;;;1.06;79.57
69035;BME280;56091;55.756;37.412;2023-03-14T06:37:06;98149.84;;;1.03;78.70
69035;BME280;56091;55.756;37.412;2023-03-14T06:42:07;98150.66;;;1.22;78.30
69035;BME280;56091;55.756;37.412;2023-03-14T06:47:09;98175.06;;;1.31;77.88
69035;BME280;56091;55.756;37.412;2023-03-14T06:52:13;98172.63;;;1.48;77.58
69035;BME280;56091;55.756;37.412;2023-03-14T06:57:14;98163.78;;;1.54;77.49
69035;BME280;56091;55.756;37.412;2023-03-14T07:02:16;98172.31;;;1.44;78.38
69035;BME280;56091;55.756;37.412;2023-03-14T07:07:17;98160.72;;;1.69;78.32
69035;BME280;56091;55.756;37.412;2023-03-14T07:12:19;98172.78;;;1.71;77.58
69035;BME280;56091;55.756;37.412;2023-03-14T07:17:21;98165.16;;;1.75;77.60
69035;BME280;56091;55.756;37.412;2023-03-14T07:22:21;98166.22;;;1.86;76.37
69035;BME280;56091;55.756;37.412;2023-03-14T07:27:22;98183.72;;;1.93;75.63
69035;BME280;56091;55.756;37.412;2023-03-14T07:32:23;98171.78;;;2.14;75.72
69035;BME280;56091;55.756;37.412;2023-03-14T07:37:24;98178.75;;;2.27;75.52
69035;BME280;56091;55.756;37.412;2023-03-14T07:42:25;98180.63;;;2.39;74.70
69035;BME280;56091;55.756;37.412;2023-03-14T07:47:42;98181.53;;;2.21;74.51
69035;BME280;56091;55.756;37.412;2023-03-14T07:52:43;98178.50;;;2.17;74.35
69035;BME280;56091;55.756;37.412;2023-03-14T07:57:44;98170.91;;;2.44;73.56
69035;BME280;56091;55.756;37.412;2023-03-14T08:02:57;98181.38;;;2.69;72.31
69035;BME280;56091;55.756;37.412;2023-03-14T08:07:57;98201.25;;;2.55;72.17
69035;BME280;56091;55.756;37.412;2023-03-14T08:12:59;98210.53;;;2.52;72.61
69035;BME280;56091;55.756;37.412;2023-03-14T08:18:00;98212.56;;;2.39;74.02
69035;BME280;56091;55.756;37.412;2023-03-14T08:23:01;98214.56;;;2.43;74.63
69035;BME280;56091;55.756;37.412;2023-03-14T08:28:02;98194.06;;;2.44;74.43
69035;BME280;56091;55.756;37.412;2023-03-14T08:33:03;98199.41;;;2.56;74.67
69035;BME280;56091;55.756;37.412;2023-03-14T08:38:04;98203.69;;;2.57;73.34
69035;BME280;56091;55.756;37.412;2023-03-14T08:43:09;98185.16;;;2.62;73.49
69035;BME280;56091;55.756;37.412;2023-03-14T08:48:10;98205.47;;;2.86;71.96
69035;BME280;56091;55.756;37.412;2023-03-14T08:53:10;98192.84;;;2.93;71.26
69035;BME280;56091;55.756;37.412;2023-03-14T08:58:11;98184.72;;;3.12;70.34
69035;BME280;56091;55.756;37.412;2023-03-14T09:03:13;98188.66;;;3.21;69.10
69035;BME280;56091;55.756;37.412;2023-03-14T09:08:14;98187.63;;;3.34;68.25
69035;BME280;56091;55.756;37.412;2023-03-14T09:13:15;98189.09;;;3.30;68.53
69035;BME280;56091;55.756;37.412;2023-03-14T09:18:16;98183.00;;;3.06;68.75
69035;BME280;56091;55.756;37.412;2023-03-14T09:23:17;98202.34;;;3.13;69.15
69035;BME280;56091;55.756;37.412;2023-03-14T09:28:20;98200.03;;;3.28;69.45
69035;BME280;56091;55.756;37.412;2023-03-14T09:33:24;98196.69;;;3.09;69.34
69035;BME280;56091;55.756;37.412;2023-03-14T09:38:27;98206.28;;;3.22;69.24
69035;BME280;56091;55.756;37.412;2023-03-14T09:43:30;98226.69;;;3.28;69.23
69035;BME280;56091;55.756;37.412;2023-03-14T09:48:32;98215.91;;;3.23;68.74
69035;BME280;56091;55.756;37.412;2023-03-14T09:53:42;98221.47;;;3.22;69.02
69035;BME280;56091;55.756;37.412;2023-03-14T09:58:50;98219.94;;;3.26;68.36
69035;BME280;56091;55.756;37.412;2023-03-14T10:03:55;98209.50;;;3.24;70.16
69035;BME280;56091;55.756;37.412;2023-03-14T10:08:56;98190.84;;;3.24;72.89
69035;BME280;56091;55.756;37.412;2023-03-14T10:19:07;98167.09;;;3.35;72.34
69035;BME280;56091;55.756;37.412;2023-03-14T10:29:19;98184.84;;;3.29;70.63
69035;BME280;56091;55.756;37.412;2023-03-14T10:34:33;98183.78;;;3.42;70.56
69035;BME280;56091;55.756;37.412;2023-03-14T10:44:42;98152.09;;;3.86;68.62
69035;BME280;56091;55.756;37.412;2023-03-14T10:49:43;98126.44;;;3.85;67.45
69035;BME280;56091;55.756;37.412;2023-03-14T10:54:48;98143.25;;;4.14;67.29
69035;BME280;56091;55.756;37.412;2023-03-14T10:59:53;98117.25;;;4.21;65.75
69035;BME280;56091;55.756;37.412;2023-03-14T11:10:36;98123.94;;;4.75;64.37
69035;BME280;56091;55.756;37.412;2023-03-14T11:26:41;98154.47;;;4.62;63.47
69035;BME280;56091;55.756;37.412;2023-03-14T11:31:44;98143.91;;;4.55;62.50
69035;BME280;56091;55.756;37.412;2023-03-14T11:36:59;98138.09;;;4.75;62.20
69035;BME280;56091;55.756;37.412;2023-03-14T11:42:02;98106.16;;;4.46;61.94
69035;BME280;56091;55.756;37.412;2023-03-14T11:47:23;98159.72;;;4.74;61.07
69035;BME280;56091;55.756;37.412;2023-03-14T11:58:02;98163.50;;;4.95;60.02
69035;BME280;56091;55.756;37.412;2023-03-14T12:08:42;98193.44;;;4.97;59.33
69035;BME280;56091;55.756;37.412;2023-03-14T12:13:47;98179.38;;;5.01;59.09
69035;BME280;56091;55.756;37.412;2023-03-14T12:18:50;98173.47;;;4.82;59.32
69035;BME280;56091;55.756;37.412;2023-03-14T12:23:55;98177.41;;;4.97;59.48
69035;BME280;56091;55.756;37.412;2023-03-14T12:39:13;98173.94;;;4.79;59.79
69035;BME280;56091;55.756;37.412;2023-03-14T12:49:32;98176.13;;;5.16;60.40
69035;BME280;56091;55.756;37.412;2023-03-14T12:55:08;98158.63;;;5.31;60.55
69035;BME280;56091;55.756;37.412;2023-03-14T13:00:19;98144.44;;;5.08;60.07
69035;BME280;56091;55.756;37.412;2023-03-14T13:05:24;98167.78;;;5.13;59.76
69035;BME280;56091;55.756;37.412;2023-03-14T13:10:26;98162.91;;;5.09;59.23
69035;BME280;56091;55.756;37.412;2023-03-14T13:15:38;98173.84;;;5.08;58.80
69035;BME280;56091;55.756;37.412;2023-03-14T13:20:46;98161.59;;;5.12;58.16
69035;BME280;56091;55.756;37.412;2023-03-14T13:25:49;98158.00;;;5.23;57.35
69035;BME280;56091;55.756;37.412;2023-03-14T13:31:03;98165.75;;;5.20;57.13
69035;BME280;56091;55.756;37.412;2023-03-14T13:36:05;98176.13;;;5.16;56.57
69035;BME280;56091;55.756;37.412;2023-03-14T13:41:07;98173.69;;;5.15;56.79
69035;BME280;56091;55.756;37.412;2023-03-14T13:46:16;98161.19;;;5.20;56.35
69035;BME280;56091;55.756;37.412;2023-03-14T13:51:20;98185.25;;;5.20;56.18
69035;BME280;56091;55.756;37.412;2023-03-14T13:56:25;98157.81;;;5.08;55.54
69035;BME280;56091;55.756;37.412;2023-03-14T14:01:34;98188.66;;;5.16;55.82
69035;BME280;56091;55.756;37.412;2023-03-14T14:06:39;98178.69;;;5.11;55.44
69035;BME280;56091;55.756;37.412;2023-03-14T14:16:49;98185.41;;;5.14;55.23
69035;BME280;56091;55.756;37.412;2023-03-14T14:21:51;98182.25;;;5.17;55.38
69035;BME280;56091;55.756;37.412;2023-03-14T14:26:54;98181.78;;;5.20;54.67
69035;BME280;56091;55.756;37.412;2023-03-14T14:32:08;98186.28;;;5.19;54.64
69035;BME280;56091;55.756;37.412;2023-03-14T14:37:21;98180.84;;;4.92;54.72
69035;BME280;56091;55.756;37.412;2023-03-14T14:42:27;98204.13;;;5.14;54.74
69035;BME280;56091;55.756;37.412;2023-03-14T14:47:29;98200.66;;;5.13;54.81
69035;BME280;56091;55.756;37.412;2023-03-14T14:52:45;98207.53;;;5.09;54.83
69035;BME280;56091;55.756;37.412;2023-03-14T14:57:52;98187.28;;;5.13;54.96
69035;BME280;56091;55.756;37.412;2023-03-14T15:02:59;98182.97;;;5.12;54.91
69035;BME280;56091;55.756;37.412;2023-03-14T15:08:00;98186.97;;;5.09;54.64
69035;BME280;56091;55.756;37.412;2023-03-14T15:13:06;98180.00;;;5.08;55.07
69035;BME280;56091;55.756;37.412;2023-03-14T15:18:16;98206.75;;;5.08;54.91
69035;BME280;56091;55.756;37.412;2023-03-14T15:23:19;98208.78;;;5.01;54.95
69035;BME280;56091;55.756;37.412;2023-03-14T15:28:23;98186.31;;;5.02;55.16
69035;BME280;56091;55.756;37.412;2023-03-14T15:33:27;98194.75;;;4.94;54.91
69035;BME280;56091;55.756;37.412;2023-03-14T15:38:28;98204.22;;;5.02;55.07
69035;BME280;56091;55.756;37.412;2023-03-14T15:43:29;98205.28;;;5.01;55.32
69035;BME280;56091;55.756;37.412;2023-03-14T15:48:29;98204.16;;;4.97;55.40
69035;BME280;56091;55.756;37.412;2023-03-14T15:53:30;98212.72;;;4.99;55.32
69035;BME280;56091;55.756;37.412;2023-03-14T15:58:31;98224.06;;;4.89;55.28
69035;BME280;56091;55.756;37.412;2023-03-14T16:03:37;98210.06;;;4.99;55.22
69035;BME280;56091;55.756;37.412;2023-03-14T16:08:37;98218.25;;;4.92;55.07
69035;BME280;56091;55.756;37.412;2023-03-14T16:13:38;98219.78;;;4.88;55.37
69035;BME280;56091;55.756;37.412;2023-03-14T16:18:39;98239.31;;;4.88;55.37
69035;BME280;56091;55.756;37.412;2023-03-14T16:23:40;98244.00;;;4.81;55.13
69035;BME280;56091;55.756;37.412;2023-03-14T16:28:42;98262.63;;;4.76;55.60
69035;BME280;56091;55.756;37.412;2023-03-14T16:33:43;98269.41;;;4.67;55.26
69035;BME280;56091;55.756;37.412;2023-03-14T16:38:45;98256.75;;;4.62;55.50
69035;BME280;56091;55.756;37.412;2023-03-14T16:43:46;98257.00;;;4.61;55.24
69035;BME280;56091;55.756;37.412;2023-03-14T16:48:51;98265.50;;;4.58;55.36
69035;BME280;56091;55.756;37.412;2023-03-14T16:53:52;98273.31;;;4.47;55.44
69035;BME280;56091;55.756;37.412;2023-03-14T16:58:53;98270.81;;;4.41;55.92
69035;BME280;56091;55.756;37.412;2023-03-14T17:03:53;98258.16;;;4.36;55.83
69035;BME280;56091;55.756;37.412;2023-03-14T17:08:55;98275.81;;;4.37;55.58
69035;BME280;56091;55.756;37.412;2023-03-14T17:13:57;98260.25;;;4.34;55.94
69035;BME280;56091;55.756;37.412;2023-03-14T17:18:57;98252.19;;;4.29;56.01
69035;BME280;56091;55.756;37.412;2023-03-14T17:23:58;98279.81;;;4.23;55.95
69035;BME280;56091;55.756;37.412;2023-03-14T17:28:59;98274.47;;;4.23;56.29
69035;BME280;56091;55.756;37.412;2023-03-14T17:34:01;98279.25;;;4.21;55.64
69035;BME280;56091;55.756;37.412;2023-03-14T17:39:01;98285.06;;;4.18;55.63
69035;BME280;56091;55.756;37.412;2023-03-14T17:44:03;98285.31;;;4.16;55.98
69035;BME280;56091;55.756;37.412;2023-03-14T17:49:05;98272.06;;;4.09;55.72
69035;BME280;56091;55.756;37.412;2023-03-14T17:54:06;98277.72;;;4.25;55.49
69035;BME280;56091;55.756;37.412;2023-03-14T17:59:11;98272.38;;;4.25;55.55
69035;BME280;56091;55.756;37.412;2023-03-14T18:04:11;98283.38;;;4.28;55.25
69035;BME280;56091;55.756;37.412;2023-03-14T18:09:16;98270.38;;;4.32;55.02
69035;BME280;56091;55.756;37.412;2023-03-14T18:14:17;98285.13;;;4.35;54.99
69035;BME280;56091;55.756;37.412;2023-03-14T18:19:18;98297.19;;;4.37;55.10
69035;BME280;56091;55.756;37.412;2023-03-14T18:24:19;98310.44;;;4.32;54.75
69035;BME280;56091;55.756;37.412;2023-03-14T18:29:21;98295.25;;;4.33;54.80
69035;BME280;56091;55.756;37.412;2023-03-14T18:34:21;98292.06;;;4.36;54.79
69035;BME280;56091;55.756;37.412;2023-03-14T18:39:22;98291.16;;;4.30;54.88
69035;BME280;56091;55.756;37.412;2023-03-14T18:44:23;98281.44;;;4.24;54.45
69035;BME280;56091;55.756;37.412;2023-03-14T18:49:24;98295.13;;;4.27;54.61
69035;BME280;56091;55.756;37.412;2023-03-14T18:54:26;98296.75;;;4.28;54.66
69035;BME280;56091;55.756;37.412;2023-03-14T18:59:27;98269.25;;;4.28;54.40
69035;BME280;56091;55.756;37.412;2023-03-14T19:04:28;98290.03;;;4.26;53.80
69035;BME280;56091;55.756;37.412;2023-03-14T19:09:29;98289.22;;;4.25;53.91
69035;BME280;56091;55.756;37.412;2023-03-14T19:14:29;98289.22;;;4.25;53.69
69035;BME280;56091;55.756;37.412;2023-03-14T19:19:30;98298.59;;;4.28;53.26
69035;BME280;56091;55.756;37.412;2023-03-14T19:24:31;98297.81;;;4.27;53.44
69035;BME280;56091;55.756;37.412;2023-03-14T19:29:34;98299.69;;;4.15;53.45
69035;BME280;56091;55.756;37.412;2023-03-14T19:34:41;98328.81;;;4.17;53.70
69035;BME280;56091;55.756;37.412;2023-03-14T19:39:43;98330.78;;;4.09;53.57
69035;BME280;56091;55.756;37.412;2023-03-14T19:44:51;98333.13;;;4.06;53.58
69035;BME280;56091;55.756;37.412;2023-03-14T19:49:53;98325.84;;;4.01;53.04
69035;BME280;56091;55.756;37.412;2023-03-14T19:54:54;98327.47;;;4.02;52.48
69035;BME280;56091;55.756;37.412;2023-03-14T19:59:56;98313.09;;;3.91;52.75
69035;BME280;56091;55.756;37.412;2023-03-14T20:05:00;98340.91;;;4.07;52.20
69035;BME280;56091;55.756;37.412;2023-03-14T20:10:03;98317.44;;;4.09;51.85
69035;BME280;56091;55.756;37.412;2023-03-14T20:15:04;98337.53;;;4.12;51.30
69035;BME280;56091;55.756;37.412;2023-03-14T20:20:09;98336.84;;;4.05;51.78
69035;BME280;56091;55.756;37.412;2023-03-14T20:25:12;98344.75;;;4.00;52.05
69035;BME280;56091;55.756;37.412;2023-03-14T20:30:15;98332.56;;;3.92;51.88
69035;BME280;56091;55.756;37.412;2023-03-14T20:35:18;98336.19;;;3.86;51.87
69035;BME280;56091;55.756;37.412;2023-03-14T20:40:30;98331.44;;;3.88;51.63
69035;BME280;56091;55.756;37.412;2023-03-14T20:45:33;98336.75;;;3.88;51.37
69035;BME280;56091;55.756;37.412;2023-03-14T20:50:34;98336.75;;;3.88;51.96
69035;BME280;56091;55.756;37.412;2023-03-14T20:55:35;98337.22;;;3.97;51.44
69035;BME280;56091;55.756;37.412;2023-03-14T21:00:39;98347.28;;;4.06;51.46
69035;BME280;56091;55.756;37.412;2023-03-14T21:05:44;98356.00;;;4.14;50.59
69035;BME280;56091;55.756;37.412;2023-03-14T21:10:47;98333.34;;;4.16;51.10
69035;BME280;56091;55.756;37.412;2023-03-14T21:15:48;98342.38;;;4.15;50.55
69035;BME280;56091;55.756;37.412;2023-03-14T21:20:51;98344.47;;;4.13;50.55
69035;BME280;56091;55.756;37.412;2023-03-14T21:25:53;98338.34;;;4.13;50.44
69035;BME280;56091;55.756;37.412;2023-03-14T21:31:03;98345.50;;;4.24;50.05
69035;BME280;56091;55.756;37.412;2023-03-14T21:36:06;98342.63;;;4.25;50.41
69035;BME280;56091;55.756;37.412;2023-03-14T21:41:07;98341.69;;;4.20;50.34
69035;BME280;56091;55.756;37.412;2023-03-14T21:46:09;98344.03;;;4.16;50.13
69035;BME280;56091;55.756;37.412;2023-03-14T21:51:09;98345.78;;;4.10;50.15
69035;BME280;56091;55.756;37.412;2023-03-14T21:56:11;98350.06;;;4.11;50.16
69035;BME280;56091;55.756;37.412;2023-03-14T22:01:12;98353.78;;;4.10;49.92
69035;BME280;56091;55.756;37.412;2023-03-14T22:06:13;98350.06;;;4.11;50.30
69035;BME280;56091;55.756;37.412;2023-03-14T22:11:14;98357.59;;;4.15;50.10
69035;BME280;56091;55.756;37.412;2023-03-14T22:16:15;98341.13;;;4.06;50.21
69035;BME280;56091;55.756;37.412;2023-03-14T22:21:16;98341.97;;;4.06;50.01
69035;BME280;56091;55.756;37.412;2023-03-14T22:26:17;98336.13;;;4.09;50.37
69035;BME280;56091;55.756;37.412;2023-03-14T22:31:18;98358.41;;;4.15;50.30
69035;BME280;56091;55.756;37.412;2023-03-14T22:36:19;98351.31;;;4.21;49.71
69035;BME280;56091;55.756;37.412;2023-03-14T22:41:20;98359.66;;;4.24;50.09
69035;BME280;56091;55.756;37.412;2023-03-14T22:46:20;98352.72;;;4.23;50.04
69035;BME280;56091;55.756;37.412;2023-03-14T22:51:21;98350.84;;;4.24;50.10
69035;BME280;56091;55.756;37.412;2023-03-14T22:56:22;98344.13;;;4.09;50.06
69035;BME280;56091;55.756;37.412;2023-03-14T23:01:23;98346.00;;;4.09;50.47
69035;BME280;56091;55.756;37.412;2023-03-14T23:06:24;98339.19;;;4.01;50.56
69035;BME280;56091;55.756;37.412;2023-03-14T23:11:25;98348.81;;;4.02;50.88
69035;BME280;56091;55.756;37.412;2023-03-14T23:16:26;98344.28;;;4.03;50.86
69035;BME280;56091;55.756;37.412;2023-03-14T23:21:27;98359.00;;;4.05;51.32
69035;BME280;56091;55.756;37.412;2023-03-14T23:26:28;98349.41;;;4.04;51.08
69035;BME280;56091;55.756;37.412;2023-03-14T23:31:31;98340.34;;;3.94;51.09
69035;BME280;56091;55.756;37.412;2023-03-14T23:36:32;98355.41;;;4.00;51.36
69035;BME280;56091;55.756;37.412;2023-03-14T23:41:36;98354.63;;;3.99;51.70
69035;BME280;56091;55.756;37.412;2023-03-14T23:46:37;98356.72;;;3.97;52.11
69035;BME280;56091;55.756;37.412;2023-03-14T23:51:38;98351.16;;;3.99;51.84
69035;BME280;56091;55.756;37.412;2023-03-14T23:56:38;98356.34;;;3.94;52.43
